createdAt,value
2022-08-07T00:00:51.594Z,18.70
2022-08-07T00:03:18.356Z,18.70
2022-08-07T00:05:45.513Z,18.70
2022-08-07T00:08:14.513Z,18.70
2022-08-07T00:10:47.745Z,18.70
2022-08-07T00:13:26.690Z,18.70
2022-08-07T00:15:53.807Z,18.70
2022-08-07T00:18:24.059Z,18.70
2022-08-07T00:20:51.339Z,18.70
2022-08-07T00:23:18.317Z,18.70
2022-08-07T00:25:58.160Z,18.60
2022-08-07T00:28:26.040Z,18.70
2022-08-07T00:31:06.194Z,18.60
2022-08-07T00:33:39.797Z,18.60
2022-08-07T00:36:07.712Z,18.50
2022-08-07T00:38:36.631Z,18.50
2022-08-07T00:41:04.561Z,18.50
2022-08-07T00:44:00.198Z,18.50
2022-08-07T00:46:23.630Z,18.50
2022-08-07T00:48:51.798Z,18.50
2022-08-07T00:51:19.166Z,18.50
2022-08-07T00:53:50.705Z,18.50
2022-08-07T00:56:23.020Z,18.50
2022-08-07T00:58:56.911Z,18.50
2022-08-07T01:01:23.760Z,18.50
2022-08-07T01:03:55.547Z,18.50
2022-08-07T01:06:28.696Z,18.40
2022-08-07T01:08:58.442Z,18.40
2022-08-07T01:12:23.902Z,18.40
2022-08-07T01:14:15.541Z,18.40
2022-08-07T01:16:47.406Z,18.40
2022-08-07T01:19:18.870Z,18.40
2022-08-07T01:21:47.073Z,18.30
2022-08-07T01:24:14.202Z,18.30
2022-08-07T01:26:47.913Z,18.30
2022-08-07T01:29:19.664Z,18.30
2022-08-07T01:31:48.677Z,18.30
2022-08-07T01:34:17.877Z,18.30
2022-08-07T01:36:51.386Z,18.30
2022-08-07T01:39:25.327Z,18.30
2022-08-07T01:42:37.174Z,18.30
2022-08-07T01:44:53.420Z,18.20
2022-08-07T01:48:18.585Z,18.20
2022-08-07T01:50:07.457Z,18.20
2022-08-07T01:52:34.248Z,18.20
2022-08-07T01:55:01.108Z,18.20
2022-08-07T01:57:29.353Z,18.10
2022-08-07T02:00:03.607Z,18.10
2022-08-07T02:03:15.993Z,18.10
2022-08-07T02:05:43.213Z,18.10
2022-08-07T02:08:16.764Z,18.10
2022-08-07T02:10:43.656Z,18.10
2022-08-07T02:13:15.640Z,18.10
2022-08-07T02:15:42.393Z,18.00
2022-08-07T02:18:12.784Z,18.00
2022-08-07T02:20:40.124Z,18.00
2022-08-07T02:23:08.293Z,17.90
2022-08-07T02:26:26.722Z,17.90
2022-08-07T02:28:24.748Z,17.90
2022-08-07T02:30:52.616Z,17.90
2022-08-07T02:33:19.702Z,17.90
2022-08-07T02:36:28.701Z,17.90
2022-08-07T02:38:37.032Z,17.90
2022-08-07T02:41:04.446Z,17.90
2022-08-07T02:43:31.488Z,17.90
2022-08-07T02:46:02.342Z,17.90
2022-08-07T02:48:30.476Z,17.90
2022-08-07T02:50:57.704Z,17.90
2022-08-07T02:53:28.741Z,17.90
2022-08-07T02:56:04.195Z,17.90
2022-08-07T02:58:33.470Z,17.90
2022-08-07T03:01:00.609Z,17.90
2022-08-07T03:03:42.123Z,18.00
2022-08-07T03:06:16.398Z,18.00
2022-08-07T03:08:52.184Z,18.00
2022-08-07T03:11:19.582Z,18.00
2022-08-07T03:13:52.120Z,18.00
2022-08-07T03:16:28.911Z,18.00
2022-08-07T03:18:58.202Z,17.90
2022-08-07T03:21:24.997Z,17.90
2022-08-07T03:24:18.133Z,17.80
2022-08-07T03:26:51.254Z,17.80
2022-08-07T03:29:25.443Z,17.80
2022-08-07T03:31:54.440Z,17.80
2022-08-07T03:34:22.914Z,17.80
2022-08-07T03:36:54.203Z,17.80
2022-08-07T03:40:00.113Z,17.80
2022-08-07T03:42:07.968Z,17.80
2022-08-07T03:44:36.081Z,17.80
2022-08-07T03:47:11.368Z,17.90
2022-08-07T03:49:41.636Z,17.90
2022-08-07T03:52:22.239Z,17.90
2022-08-07T03:54:55.291Z,18.00
2022-08-07T03:58:33.428Z,17.90
2022-08-07T04:00:14.829Z,17.90
2022-08-07T04:02:43.132Z,17.90
2022-08-07T04:05:14.312Z,17.90
2022-08-07T04:07:46.582Z,17.90
2022-08-07T04:10:19.003Z,17.90
2022-08-07T04:12:47.333Z,17.80
2022-08-07T04:15:14.258Z,17.90
2022-08-07T04:18:56.929Z,17.90
2022-08-07T04:20:29.832Z,17.90
2022-08-07T04:23:01.817Z,17.90
2022-08-07T04:25:39.057Z,17.90
2022-08-07T04:28:10.431Z,18.00
2022-08-07T04:30:55.517Z,18.00
2022-08-07T04:33:24.617Z,18.00
2022-08-07T04:35:53.262Z,17.90
2022-08-07T04:38:21.173Z,17.90
2022-08-07T04:40:51.640Z,17.90
2022-08-07T04:44:10.487Z,18.00
2022-08-07T04:46:59.355Z,17.90
2022-08-07T04:49:29.343Z,17.90
2022-08-07T04:52:18.715Z,17.90
2022-08-07T04:55:01.804Z,17.90
2022-08-07T04:58:11.093Z,17.90
2022-08-07T05:00:56.095Z,17.90
2022-08-07T05:04:00.369Z,17.90
2022-08-07T05:06:43.047Z,17.90
2022-08-07T05:09:45.590Z,18.00
2022-08-07T05:12:27.228Z,18.00
2022-08-07T05:15:04.173Z,18.00
2022-08-07T05:17:52.156Z,18.00
2022-08-07T05:20:21.575Z,18.10
2022-08-07T05:22:49.853Z,18.10
2022-08-07T05:25:25.251Z,18.10
2022-08-07T05:28:20.456Z,18.10
2022-08-07T05:30:48.956Z,18.10
2022-08-07T05:33:15.795Z,18.20
2022-08-07T05:35:45.015Z,18.20
2022-08-07T05:38:12.456Z,18.20
2022-08-07T05:40:59.271Z,18.20
2022-08-07T05:43:50.199Z,18.30
2022-08-07T05:46:13.736Z,18.30
2022-08-07T05:48:58.303Z,18.30
2022-08-07T05:51:26.378Z,18.30
2022-08-07T05:54:09.508Z,18.30
2022-08-07T05:56:45.567Z,18.40
2022-08-07T05:59:21.239Z,18.40
2022-08-07T06:01:48.636Z,18.40
2022-08-07T06:04:17.462Z,18.50
2022-08-07T06:06:46.217Z,18.50
2022-08-07T06:09:15.639Z,18.50
2022-08-07T06:11:42.485Z,18.60
2022-08-07T06:14:11.446Z,18.60
2022-08-07T06:16:40.423Z,18.80
2022-08-07T06:19:07.233Z,19.00
2022-08-07T06:22:14.461Z,19.20
2022-08-07T06:24:45.476Z,19.40
2022-08-07T06:27:08.426Z,19.50
2022-08-07T06:29:39.024Z,19.60
2022-08-07T06:32:06.155Z,19.70
2022-08-07T06:34:32.895Z,19.80
2022-08-07T06:37:02.589Z,19.90
2022-08-07T06:40:16.978Z,20.00
2022-08-07T06:42:32.926Z,20.00
2022-08-07T06:45:02.194Z,20.30
2022-08-07T06:47:29.143Z,20.70
2022-08-07T06:50:14.673Z,21.00
2022-08-07T06:52:53.213Z,21.20
2022-08-07T06:56:00.489Z,21.40
2022-08-07T06:58:16.792Z,21.60
2022-08-07T07:00:48.432Z,21.90
2022-08-07T07:03:26.417Z,22.10
2022-08-07T07:13:56.601Z,22.00
2022-08-07T07:20:12.204Z,21.80
2022-08-07T07:24:10.106Z,21.70
2022-08-07T07:26:32.658Z,21.60
2022-08-07T07:29:56.258Z,21.60
2022-08-07T07:31:59.412Z,21.70
2022-08-07T07:34:33.703Z,21.60
2022-08-07T07:37:14.339Z,21.70
2022-08-07T07:39:52.086Z,21.70
2022-08-07T07:42:25.729Z,21.80
2022-08-07T07:45:06.480Z,21.80
2022-08-07T07:47:42.712Z,22.00
2022-08-07T07:50:34.753Z,22.00
2022-08-07T07:53:20.156Z,22.00
2022-08-07T07:55:54.972Z,22.20
2022-08-07T07:58:26.354Z,22.30
2022-08-07T08:00:54.945Z,22.40
2022-08-07T08:04:06.061Z,22.40
2022-08-07T08:06:13.027Z,22.50
2022-08-07T08:08:42.071Z,22.70
2022-08-07T08:11:16.082Z,22.60
2022-08-07T08:13:53.827Z,22.60
2022-08-07T08:16:26.387Z,22.60
2022-08-07T08:18:57.006Z,22.40
2022-08-07T08:22:03.037Z,22.30
2022-08-07T08:24:57.002Z,22.20
2022-08-07T08:27:26.193Z,22.20
2022-08-07T08:30:05.207Z,22.00
2022-08-07T08:32:38.509Z,22.00
2022-08-07T08:35:08.789Z,22.10
2022-08-07T08:38:00.934Z,22.00
2022-08-07T08:40:31.596Z,22.00
2022-08-07T08:43:22.090Z,22.10
2022-08-07T08:46:09.645Z,22.20
2022-08-07T08:49:16.562Z,22.30
2022-08-07T08:52:13.878Z,22.30
2022-08-07T08:55:21.109Z,22.30
2022-08-07T08:58:13.319Z,22.40
2022-08-07T09:00:52.737Z,22.30
2022-08-07T09:03:47.403Z,22.30
2022-08-07T09:06:55.067Z,22.30
2022-08-07T09:09:39.204Z,22.50
2022-08-07T09:12:30.592Z,22.60
2022-08-07T09:16:25.296Z,22.70
2022-08-07T09:18:47.469Z,22.70
2022-08-07T09:22:22.409Z,22.70
2022-08-07T09:25:00.709Z,22.70
2022-08-07T09:27:59.438Z,22.90
2022-08-07T09:30:37.689Z,22.90
2022-08-07T09:33:52.523Z,22.90
2022-08-07T09:36:42.780Z,22.80
2022-08-07T09:39:52.752Z,22.80
2022-08-07T09:42:16.988Z,22.90
2022-08-07T09:47:24.705Z,22.80
2022-08-07T09:48:01.443Z,22.70
2022-08-07T09:50:36.593Z,22.50
2022-08-07T09:53:07.922Z,22.50
2022-08-07T09:56:02.692Z,23.00
2022-08-07T09:58:48.736Z,23.50
2022-08-07T10:01:53.344Z,24.10
2022-08-07T10:04:47.704Z,24.60
2022-08-07T10:08:03.926Z,24.90
2022-08-07T10:11:00.143Z,25.20
2022-08-07T10:13:55.305Z,25.40
2022-08-07T10:16:33.393Z,25.70
2022-08-07T10:19:11.119Z,26.40
2022-08-07T10:22:16.014Z,26.90
2022-08-07T10:25:08.205Z,27.30
2022-08-07T10:27:52.181Z,27.30
2022-08-07T10:30:20.257Z,27.30
2022-08-07T10:33:09.010Z,27.40
2022-08-07T10:35:55.637Z,27.40
2022-08-07T10:38:51.103Z,27.30
2022-08-07T10:41:57.740Z,27.20
2022-08-07T10:44:56.072Z,27.20
2022-08-07T10:47:53.122Z,27.20
2022-08-07T10:50:49.902Z,27.40
2022-08-07T10:53:43.975Z,27.50
2022-08-07T10:56:31.519Z,27.30
2022-08-07T10:59:21.313Z,26.90
2022-08-07T11:02:12.296Z,26.40
2022-08-07T11:05:15.295Z,25.90
2022-08-07T11:08:07.604Z,25.90
2022-08-07T11:10:48.725Z,25.90
2022-08-07T11:14:42.705Z,25.80
2022-08-07T11:16:36.412Z,25.70
2022-08-07T11:19:27.230Z,25.70
2022-08-07T11:22:27.211Z,25.50
2022-08-07T11:25:08.301Z,25.30
2022-08-07T11:28:01.450Z,25.20
2022-08-07T11:31:03.186Z,25.10
2022-08-07T11:33:59.356Z,25.10
2022-08-07T11:36:56.456Z,25.00
2022-08-07T11:39:59.126Z,24.90
2022-08-07T11:42:29.577Z,24.80
2022-08-07T11:44:59.294Z,24.70
2022-08-07T11:47:39.144Z,24.70
2022-08-07T11:50:32.916Z,24.70
2022-08-07T11:53:16.986Z,24.50
2022-08-07T11:56:25.335Z,24.50
2022-08-07T11:58:58.795Z,24.60
2022-08-07T12:01:59.300Z,24.60
2022-08-07T12:04:54.057Z,24.50
2022-08-07T12:07:40.275Z,24.60
2022-08-07T12:10:26.500Z,24.60
2022-08-07T12:13:11.291Z,24.70
2022-08-07T12:16:06.179Z,24.80
2022-08-07T12:19:04.787Z,24.80
2022-08-07T12:22:35.814Z,24.70
2022-08-07T12:24:40.220Z,24.80
2022-08-07T12:27:14.987Z,24.90
2022-08-07T12:29:54.688Z,25.00
2022-08-07T12:32:44.832Z,25.00
2022-08-07T12:35:15.010Z,25.00
2022-08-07T12:38:11.759Z,25.00
2022-08-07T12:40:47.803Z,25.10
2022-08-07T12:44:04.122Z,25.00
2022-08-07T12:46:32.744Z,25.00
2022-08-07T12:49:25.541Z,25.00
2022-08-07T12:52:18.259Z,24.90
2022-08-07T12:55:05.382Z,25.00
2022-08-07T12:57:39.009Z,25.10
2022-08-07T13:00:41.738Z,25.30
2022-08-07T13:04:02.293Z,25.40
2022-08-07T13:07:03.237Z,25.60
2022-08-07T13:10:28.550Z,25.90
2022-08-07T13:12:54.204Z,26.20
2022-08-07T13:15:38.533Z,26.20
2022-08-07T13:18:26.106Z,26.30
2022-08-07T13:21:06.105Z,26.50
2022-08-07T13:24:04.837Z,26.50
2022-08-07T13:26:46.247Z,26.50
2022-08-07T13:29:23.801Z,26.40
2022-08-07T13:32:31.136Z,26.40
2022-08-07T13:34:56.970Z,26.20
2022-08-07T13:37:40.663Z,26.00
2022-08-07T13:40:34.847Z,25.90
2022-08-07T13:43:04.467Z,26.00
2022-08-07T13:46:21.117Z,26.00
2022-08-07T13:48:27.696Z,25.90
2022-08-07T13:51:02.143Z,25.90
2022-08-07T13:54:00.646Z,25.90
2022-08-07T13:56:35.460Z,25.90
2022-08-07T13:59:19.861Z,25.90
2022-08-07T14:02:07.733Z,25.80
2022-08-07T14:05:07.762Z,25.70
2022-08-07T14:07:59.701Z,25.60
2022-08-07T14:10:34.664Z,25.70
2022-08-07T14:13:10.305Z,25.70
2022-08-07T14:15:42.192Z,25.70
2022-08-07T14:18:29.008Z,25.70
2022-08-07T14:21:20.967Z,25.80
2022-08-07T14:24:13.058Z,25.80
2022-08-07T14:26:50.499Z,25.80
2022-08-07T14:30:05.871Z,25.70
2022-08-07T14:32:09.244Z,25.60
2022-08-07T14:34:47.052Z,25.50
2022-08-07T14:37:16.852Z,25.50
2022-08-07T14:40:15.985Z,25.50
2022-08-07T14:42:33.649Z,25.50
2022-08-07T14:47:51.208Z,25.40
2022-08-07T14:50:20.612Z,25.30
2022-08-07T14:52:50.371Z,25.30
2022-08-07T14:55:18.039Z,25.20
2022-08-07T14:57:57.884Z,25.10
2022-08-07T15:00:29.828Z,25.10
2022-08-07T15:02:58.987Z,25.10
2022-08-07T15:05:26.885Z,25.00
2022-08-07T15:07:58.537Z,24.90
2022-08-07T15:10:30.156Z,24.90
2022-08-07T15:12:59.929Z,24.80
2022-08-07T15:15:53.697Z,24.70
2022-08-07T15:18:35.969Z,24.60
2022-08-07T15:26:46.864Z,24.50
2022-08-07T15:30:06.885Z,24.40
2022-08-07T15:32:05.080Z,24.40
2022-08-07T15:34:56.942Z,24.40
2022-08-07T15:38:17.829Z,24.30
2022-08-07T15:40:33.881Z,24.20
2022-08-07T15:43:53.258Z,24.20
2022-08-07T15:54:39.267Z,24.10
2022-08-07T15:57:10.581Z,24.10
2022-08-07T15:59:54.477Z,24.10
2022-08-07T16:02:26.084Z,24.10
2022-08-07T16:04:58.105Z,24.00
2022-08-07T16:08:32.663Z,24.00
2022-08-07T16:10:26.331Z,23.90
2022-08-07T16:13:05.551Z,23.90
2022-08-07T16:15:57.268Z,23.80
2022-08-07T16:18:49.984Z,23.80
2022-08-07T16:22:02.058Z,23.80
2022-08-07T16:24:38.494Z,23.70
2022-08-07T16:27:40.797Z,23.60
2022-08-07T16:30:30.599Z,23.60
2022-08-07T16:34:02.601Z,23.50
2022-08-07T16:36:31.428Z,23.50
2022-08-07T16:39:02.163Z,23.40
2022-08-07T16:41:41.097Z,23.40
2022-08-07T16:44:53.775Z,23.30
2022-08-07T16:47:56.934Z,23.30
2022-08-07T16:51:20.590Z,23.20
2022-08-07T16:54:19.808Z,23.20
2022-08-07T16:56:55.993Z,23.20
2022-08-07T16:59:47.472Z,23.20
2022-08-07T17:02:52.186Z,23.20
2022-08-07T17:06:02.224Z,23.10
2022-08-07T17:08:09.511Z,23.00
2022-08-07T17:10:54.637Z,23.00
2022-08-07T17:13:38.915Z,23.00
2022-08-07T17:16:25.629Z,22.90
2022-08-07T17:18:52.387Z,22.90
2022-08-07T17:21:22.685Z,22.90
2022-08-07T17:23:57.686Z,22.90
2022-08-07T17:27:05.644Z,22.90
2022-08-07T17:30:14.323Z,22.80
2022-08-07T17:34:08.792Z,22.80
2022-08-07T17:35:55.913Z,22.80
2022-08-07T17:38:50.271Z,22.70
2022-08-07T17:42:03.755Z,22.60
2022-08-07T17:44:52.717Z,22.40
2022-08-07T17:47:43.173Z,22.30
2022-08-07T17:50:20.071Z,22.10
2022-08-07T17:52:59.729Z,22.00
2022-08-07T17:56:00.998Z,21.90
2022-08-07T17:58:40.091Z,21.70
2022-08-07T18:01:34.743Z,21.60
2022-08-07T18:04:58.025Z,21.50
2022-08-07T18:07:37.303Z,21.40
2022-08-07T18:12:06.255Z,21.30
2022-08-07T18:14:01.770Z,21.20
2022-08-07T18:16:58.494Z,21.30
2022-08-07T18:21:08.442Z,21.30
2022-08-07T18:22:30.345Z,21.30
2022-08-07T18:25:23.968Z,21.10
2022-08-07T18:28:35.658Z,21.10
2022-08-07T18:31:04.605Z,21.00
2022-08-07T18:33:38.914Z,20.80
2022-08-07T18:36:32.697Z,20.80
2022-08-07T18:40:07.535Z,20.70
2022-08-07T18:42:12.932Z,20.70
2022-08-07T18:45:42.764Z,20.70
2022-08-07T18:48:01.059Z,20.60
2022-08-07T18:50:46.346Z,20.60
2022-08-07T18:53:55.523Z,20.50
2022-08-07T18:56:37.697Z,20.40
2022-08-07T18:59:47.781Z,20.40
2022-08-07T19:02:34.000Z,20.40
2022-08-07T19:05:17.471Z,20.30
2022-08-07T19:08:05.620Z,20.20
2022-08-07T19:10:55.400Z,20.20
2022-08-07T19:13:27.451Z,20.20
2022-08-07T19:16:05.756Z,20.10
2022-08-07T19:18:58.260Z,20.10
2022-08-07T19:21:58.588Z,20.10
2022-08-07T19:24:43.633Z,20.00
2022-08-07T19:28:29.620Z,20.00
2022-08-07T19:31:02.235Z,20.00
2022-08-07T19:32:51.395Z,20.00
2022-08-07T19:35:25.709Z,20.00
2022-08-07T19:38:00.907Z,20.00
2022-08-07T19:40:34.783Z,20.00
2022-08-07T19:43:49.136Z,20.00
2022-08-07T19:46:14.826Z,20.00
2022-08-07T19:49:58.135Z,19.90
2022-08-07T19:52:18.216Z,19.80
2022-08-07T19:54:55.930Z,19.80
2022-08-07T19:58:03.260Z,19.80
2022-08-07T20:00:30.113Z,19.80
2022-08-07T20:03:04.155Z,19.80
2022-08-07T20:06:00.102Z,19.90
2022-08-07T20:08:22.909Z,19.90
2022-08-07T20:11:03.619Z,19.90
2022-08-07T20:13:51.049Z,19.90
2022-08-07T20:16:35.670Z,19.90
2022-08-07T20:19:05.770Z,19.90
2022-08-07T20:21:42.197Z,19.90
2022-08-07T20:24:28.866Z,19.90
2022-08-07T20:27:02.258Z,20.00
2022-08-07T20:29:49.268Z,20.00
2022-08-07T20:32:47.049Z,19.90
2022-08-07T20:35:25.270Z,19.90
2022-08-07T20:37:58.259Z,19.90
2022-08-07T20:40:32.590Z,19.90
2022-08-07T20:43:01.066Z,19.90
2022-08-07T20:46:24.881Z,19.90
2022-08-07T20:48:28.834Z,19.90
2022-08-07T20:50:58.870Z,19.90
2022-08-07T20:54:03.286Z,19.80
2022-08-07T20:56:12.548Z,19.80
2022-08-07T20:58:43.479Z,19.80
2022-08-07T21:01:19.947Z,19.70
2022-08-07T21:04:18.758Z,19.70
2022-08-07T21:06:38.272Z,19.70
2022-08-07T21:09:14.135Z,19.70
2022-08-07T21:11:50.799Z,19.60
2022-08-07T21:14:33.932Z,19.60
2022-08-07T21:18:02.950Z,19.60
2022-08-07T21:20:05.309Z,19.60
2022-08-07T21:22:45.024Z,19.60
2022-08-07T21:25:38.680Z,19.60
2022-08-07T21:28:16.686Z,19.70
2022-08-07T21:31:03.316Z,19.70
2022-08-07T21:33:44.977Z,19.60
2022-08-07T21:36:32.202Z,19.70
2022-08-07T21:39:02.588Z,19.70
2022-08-07T21:42:01.453Z,19.70
2022-08-07T21:44:43.387Z,19.70
2022-08-07T21:47:26.247Z,19.70
2022-08-07T21:50:14.770Z,19.70
2022-08-07T21:53:00.458Z,19.70
2022-08-07T21:55:55.898Z,19.70
2022-08-07T21:58:40.185Z,19.70
2022-08-07T22:01:19.250Z,19.60
2022-08-07T22:03:48.034Z,19.60
2022-08-07T22:06:28.720Z,19.60
2022-08-07T22:09:03.434Z,19.60
2022-08-07T22:12:05.361Z,19.50
2022-08-07T22:14:23.714Z,19.50
2022-08-07T22:17:01.836Z,19.50
2022-08-07T22:19:43.185Z,19.50
2022-08-07T22:22:29.377Z,19.50
2022-08-07T22:25:05.696Z,19.50
2022-08-07T22:28:30.143Z,19.50
2022-08-07T22:31:59.368Z,19.50
2022-08-07T22:34:31.647Z,19.50
2022-08-07T22:37:26.933Z,19.50
2022-08-07T22:40:44.823Z,19.50
2022-08-07T22:43:50.433Z,19.60
2022-08-07T22:47:02.139Z,19.60
2022-08-07T22:49:51.662Z,19.70
2022-08-07T22:52:43.389Z,19.70
2022-08-07T22:55:44.007Z,19.80
2022-08-07T22:58:49.647Z,19.70
2022-08-07T23:01:58.954Z,19.70
2022-08-07T23:04:30.670Z,19.70
2022-08-07T23:07:41.956Z,19.70
2022-08-07T23:10:41.938Z,19.70
2022-08-07T23:13:19.771Z,19.70
2022-08-07T23:16:05.785Z,19.70
2022-08-07T23:19:15.395Z,19.70
2022-08-07T23:22:15.012Z,19.60
2022-08-07T23:25:01.519Z,19.70
2022-08-07T23:28:22.108Z,19.60
2022-08-07T23:31:42.723Z,19.60
2022-08-07T23:34:33.461Z,19.60
2022-08-07T23:37:19.040Z,19.60
2022-08-07T23:40:00.857Z,19.60
2022-08-07T23:42:39.599Z,19.60
2022-08-07T23:45:33.188Z,19.50
2022-08-07T23:48:29.082Z,19.50
2022-08-07T23:53:08.845Z,19.50
2022-08-07T23:54:43.897Z,19.50
2022-08-07T23:57:18.663Z,19.50
